»·PEaware :: UAL201 PHNL-PGUM

UAL201 :: PHNL-PGUM

FLIGHT INFORMATION

Flight Status: Arrived
Operator:
United Airlines
More flights by this operator :: More flights under this callsign
Pilot: Anonymous 14085 (14085)
Aircraft: BOEING 777-200
(B772)
More flights by this aircraft type
Origin: PHNL Honolulu Intl
United States
Destination: PGUM Guam Intl
Guam
More flights between these airports :: More routes between these airports
Route: KEOLA2 KATHS HOOPA A450 UNZ
File this flight plan on PilotEdge
Remarks: PBN / A1B1D1S2T1 DOF / 170619 REG / N755SB EET / KZAK0050 OPR / UAL RALT / PMDY PGSN RMK / TCAS SIMBRIEF
Altitude:
(Current/Filed)
36,000ft
Speed:
(Current/Filed)
480kts
Departed: 19-Jun-17 01:29 PM
Arrived: 19-Jun-17 08:58 PM
Distance/Time
Traveled:
3296nm/7:29
Distance/Time
To Go:
Arrived

Flight Plot

Page will automatically refresh every two minutes.

Flight plan parsing failed; only flown route is shown


Map Options




Map Legend


Flown Route
Filed Route
Departure Airport
Arrival Airport
Navaid (VOR, NDB)
Fix

Horizontal Profiles

Position Reports

Time Latitude Longitude Heading Altitude Ground
Speed
19-Jun-17 13:11 21.328969 -157.919780 318 22ft 0kts
19-Jun-17 13:12 21.328969 -157.919780 318 22ft 0kts
19-Jun-17 13:13 21.328969 -157.919780 318 22ft 0kts
19-Jun-17 13:14 21.328969 -157.919780 318 22ft 0kts
19-Jun-17 13:15 21.328969 -157.919780 318 22ft 0kts
19-Jun-17 13:16 21.328969 -157.919780 318 22ft 0kts
19-Jun-17 13:17 21.328969 -157.919780 318 22ft 0kts
19-Jun-17 13:18 21.328969 -157.919780 318 22ft 0kts
19-Jun-17 13:19 21.328969 -157.919780 318 22ft 0kts
19-Jun-17 13:20 21.328932 -157.919744 318 22ft 2kts
19-Jun-17 13:21 21.328372 -157.919184 298 22ft 2kts
19-Jun-17 13:22 21.328320 -157.918961 268 22ft 0kts
19-Jun-17 13:23 21.328320 -157.918961 268 22ft 0kts
19-Jun-17 13:24 21.328320 -157.918961 268 22ft 0kts
19-Jun-17 13:25 21.327731 -157.920024 268 22ft 11kts
19-Jun-17 13:26 21.327761 -157.924246 271 22ft 16kts
19-Jun-17 13:27 21.327442 -157.929272 270 22ft 17kts
19-Jun-17 13:28 21.327420 -157.935094 270 22ft 21kts
19-Jun-17 13:29 21.327430 -157.941956 270 22ft 24kts
19-Jun-17 13:30 21.325264 -157.942627 99 22ft 3kts
19-Jun-17 13:31 21.325231 -157.931368 89 22ft 143kts
19-Jun-17 13:32 21.330701 -157.872720 50 2563ft 240kts
19-Jun-17 13:33 21.393802 -157.880869 300 6309ft 289kts
19-Jun-17 13:34 21.380197 -157.961889 265 10058ft 301kts
19-Jun-17 13:35 21.371069 -158.064607 259 11714ft 393kts
19-Jun-17 13:36 21.351815 -158.180579 257 15851ft 404kts
19-Jun-17 13:37 21.331133 -158.300692 255 19357ft 418kts
19-Jun-17 13:38 21.309603 -158.425058 254 22403ft 432kts
19-Jun-17 13:39 21.296997 -158.555581 262 25209ft 451kts
19-Jun-17 13:41 21.293980 -158.690019 263 27686ft 463kts
19-Jun-17 13:42 21.290982 -158.829450 263 29871ft 475kts
19-Jun-17 13:43 21.287848 -158.972238 264 31926ft 485kts
19-Jun-17 13:44 21.284551 -159.116564 263 34537ft 480kts
19-Jun-17 13:45 21.281222 -159.257837 263 36100ft 469kts
19-Jun-17 13:46 21.277702 -159.397227 263 36125ft 471kts
19-Jun-17 13:47 21.274095 -159.537966 263 36124ft 471kts
19-Jun-17 13:48 21.270392 -159.677930 263 36128ft 471kts
19-Jun-17 13:49 21.266599 -159.818210 263 36123ft 471kts
19-Jun-17 13:50 21.262707 -159.958343 263 36073ft 471kts
19-Jun-17 13:51 21.258697 -160.098497 263 36072ft 471kts
19-Jun-17 13:52 21.254553 -160.239585 262 36745ft 477kts
19-Jun-17 13:53 21.250353 -160.379715 262 38051ft 469kts
19-Jun-17 13:54 21.246011 -160.517837 262 38069ft 469kts
19-Jun-17 13:55 21.241547 -160.657747 262 38070ft 470kts
19-Jun-17 13:56 21.236979 -160.797030 262 38073ft 470kts
19-Jun-17 13:57 21.232286 -160.936842 262 38072ft 470kts
19-Jun-17 13:58 21.215977 -161.073521 243 38076ft 455kts
19-Jun-17 13:59 21.162711 -161.195751 240 38070ft 453kts
19-Jun-17 14:00 21.108401 -161.316780 240 38068ft 453kts
19-Jun-17 14:01 21.078535 -161.444865 266 38072ft 474kts
19-Jun-17 14:02 21.083238 -161.585444 266 38067ft 473kts
19-Jun-17 14:03 21.087440 -161.725690 265 38071ft 473kts
19-Jun-17 14:04 21.091536 -161.865905 265 38070ft 473kts
19-Jun-17 14:05 21.095527 -162.006456 265 38070ft 473kts
19-Jun-17 14:06 21.099399 -162.146870 265 38069ft 473kts
19-Jun-17 14:07 21.103160 -162.287444 265 38068ft 473kts
19-Jun-17 14:08 21.106802 -162.427952 265 38068ft 473kts
19-Jun-17 14:09 21.110323 -162.568214 265 38067ft 473kts
19-Jun-17 14:10 21.113848 -162.713697 265 38071ft 473kts
19-Jun-17 14:11 21.117221 -162.850350 266 38071ft 474kts
19-Jun-17 14:12 21.122107 -162.990912 266 38070ft 474kts
19-Jun-17 14:13 21.126994 -163.135992 266 38070ft 474kts
19-Jun-17 14:14 21.131610 -163.276508 266 38069ft 474kts
19-Jun-17 14:15 21.136129 -163.417617 266 38068ft 474kts
19-Jun-17 14:16 21.140518 -163.558343 266 38068ft 474kts
19-Jun-17 14:17 21.144789 -163.699129 265 38072ft 473kts
19-Jun-17 14:18 21.148945 -163.839846 265 38071ft 474kts
19-Jun-17 14:19 21.152173 -163.980479 265 38071ft 473kts
19-Jun-17 14:20 21.154424 -164.121155 265 38070ft 473kts
19-Jun-17 14:21 21.156541 -164.261762 265 38069ft 473kts
19-Jun-17 14:22 21.158547 -164.402666 265 38069ft 473kts
19-Jun-17 14:23 21.160433 -164.543445 265 38068ft 473kts
19-Jun-17 14:24 21.162194 -164.683684 264 38073ft 473kts
19-Jun-17 14:25 21.163843 -164.824176 264 38071ft 473kts
19-Jun-17 14:26 21.165383 -164.965130 264 38071ft 473kts
19-Jun-17 14:27 21.166803 -165.105729 264 38070ft 473kts
19-Jun-17 14:28 21.168105 -165.246262 264 38070ft 473kts
19-Jun-17 14:29 21.169291 -165.386660 264 38069ft 473kts
19-Jun-17 14:30 21.170364 -165.527570 264 38068ft 473kts
19-Jun-17 14:31 21.171317 -165.668013 264 38071ft 473kts
19-Jun-17 14:32 21.172154 -165.808956 264 38072ft 473kts
19-Jun-17 14:33 21.172876 -165.949624 264 38071ft 473kts
19-Jun-17 14:34 21.173482 -166.090202 264 38070ft 473kts
19-Jun-17 14:35 21.173971 -166.230643 264 38070ft 473kts
19-Jun-17 14:36 21.174344 -166.370987 264 38069ft 473kts
19-Jun-17 14:37 21.174602 -166.511809 264 38069ft 473kts
19-Jun-17 14:38 21.174743 -166.652584 264 38068ft 473kts
19-Jun-17 14:39 21.174764 -166.792946 264 38072ft 472kts
19-Jun-17 14:40 21.174591 -166.933267 264 38072ft 473kts
19-Jun-17 14:41 21.174458 -167.074289 264 38071ft 473kts
19-Jun-17 14:42 21.174140 -167.215288 264 38070ft 473kts
19-Jun-17 14:43 21.173700 -167.355982 264 38070ft 473kts
19-Jun-17 14:44 21.173142 -167.496805 264 38069ft 473kts
19-Jun-17 14:45 21.172470 -167.637271 264 38068ft 473kts
19-Jun-17 14:46 21.171676 -167.777993 264 38072ft 473kts
19-Jun-17 14:47 21.170769 -167.918955 264 38071ft 473kts
19-Jun-17 14:48 21.169746 -168.059494 264 38071ft 473kts
19-Jun-17 14:49 21.168606 -168.200415 264 38070ft 473kts
19-Jun-17 14:50 21.167350 -168.341105 264 38070ft 473kts
19-Jun-17 14:51 21.165980 -168.481651 264 38069ft 473kts
19-Jun-17 14:52 21.164488 -168.622677 264 38068ft 473kts
19-Jun-17 14:53 21.162892 -168.762297 263 38072ft 473kts
19-Jun-17 14:54 21.161173 -168.902864 263 38071ft 473kts
19-Jun-17 14:55 21.159339 -169.043439 263 38071ft 473kts
19-Jun-17 14:56 21.157385 -169.184214 263 38070ft 473kts
19-Jun-17 14:57 21.155315 -169.324951 263 38070ft 473kts
19-Jun-17 14:58 21.153132 -169.465557 263 38069ft 473kts
19-Jun-17 14:59 21.150827 -169.606407 263 38068ft 473kts
19-Jun-17 15:00 21.148411 -169.746756 263 38072ft 473kts
19-Jun-17 15:01 21.145874 -169.887570 263 38071ft 473kts
19-Jun-17 15:02 21.143231 -170.027859 263 38071ft 473kts
19-Jun-17 15:03 21.140464 -170.168592 263 38070ft 473kts
19-Jun-17 15:04 21.137596 -170.308621 263 38043ft 473kts
19-Jun-17 15:05 21.134591 -170.449563 263 38042ft 473kts
19-Jun-17 15:06 21.131482 -170.590007 263 38041ft 473kts
19-Jun-17 15:07 21.128247 -170.730677 263 38044ft 473kts
19-Jun-17 15:08 21.124903 -170.871278 263 38044ft 473kts
19-Jun-17 15:09 21.121434 -171.012113 263 38043ft 473kts
19-Jun-17 15:10 21.117853 -171.152807 263 38043ft 473kts
19-Jun-17 15:11 21.114208 -171.291800 263 38044ft 468kts
19-Jun-17 15:12 21.110430 -171.431115 263 38041ft 468kts
19-Jun-17 15:13 21.106536 -171.570649 263 38040ft 468kts
19-Jun-17 15:14 21.102551 -171.709198 262 38045ft 468kts
19-Jun-17 15:15 21.098431 -171.848673 262 38044ft 468kts
19-Jun-17 15:16 21.094198 -171.987853 262 38043ft 468kts
19-Jun-17 15:17 21.088982 -172.126890 262 38042ft 468kts
19-Jun-17 15:18 21.083646 -172.265712 262 38042ft 468kts
19-Jun-17 15:19 21.078181 -172.404862 262 38041ft 468kts
19-Jun-17 15:19 21.073553 -172.520517 262 38040ft 468kts
19-Jun-17 15:21 21.066931 -172.682580 262 38045ft 468kts
19-Jun-17 15:22 21.061141 -172.821327 262 38044ft 468kts
19-Jun-17 15:23 21.055220 -172.960529 262 38043ft 468kts
19-Jun-17 15:24 21.049210 -173.099150 262 38042ft 468kts
19-Jun-17 15:25 21.043070 -173.238163 262 38041ft 468kts
19-Jun-17 15:25 21.037875 -173.353829 262 38041ft 468kts
19-Jun-17 15:26 21.031543 -173.492506 262 38040ft 468kts
19-Jun-17 15:27 21.025103 -173.631080 262 38039ft 468kts
19-Jun-17 15:28 21.018528 -173.769967 261 38043ft 467kts
19-Jun-17 15:29 21.011852 -173.908725 261 38043ft 467kts
19-Jun-17 15:30 21.005070 -174.047370 261 38042ft 467kts
19-Jun-17 15:31 20.998181 -174.185885 261 38041ft 467kts
19-Jun-17 15:32 20.991174 -174.324502 261 38040ft 467kts
19-Jun-17 15:33 20.984038 -174.463439 261 38039ft 467kts
19-Jun-17 15:34 20.976829 -174.601602 261 38039ft 467kts
19-Jun-17 15:35 20.969476 -174.740230 261 38043ft 467kts
19-Jun-17 15:36 20.962003 -174.879107 261 38042ft 467kts
19-Jun-17 15:37 20.954446 -175.017478 261 38041ft 467kts
19-Jun-17 15:38 20.946766 -175.156018 261 38040ft 467kts
19-Jun-17 15:39 20.938995 -175.294203 261 38040ft 467kts
19-Jun-17 15:40 20.931089 -175.432771 261 38039ft 467kts
19-Jun-17 15:41 20.923064 -175.571457 261 38038ft 467kts
19-Jun-17 15:42 20.914937 -175.709824 261 38042ft 467kts
19-Jun-17 15:43 20.906709 -175.848112 261 38042ft 467kts
19-Jun-17 15:44 20.898458 -175.984950 261 38053ft 467kts
19-Jun-17 15:45 20.889997 -176.123413 261 38052ft 467kts
19-Jun-17 15:46 20.881423 -176.261836 261 38051ft 467kts
19-Jun-17 15:47 20.872747 -176.400082 261 38051ft 466kts
19-Jun-17 15:48 20.863971 -176.538214 261 38050ft 466kts
19-Jun-17 15:49 20.855114 -176.675804 260 38054ft 466kts
19-Jun-17 15:50 20.846125 -176.813839 260 38053ft 466kts
19-Jun-17 15:51 20.837004 -176.952082 260 38052ft 466kts
19-Jun-17 15:52 20.827796 -177.089958 260 38052ft 466kts
19-Jun-17 15:53 20.818462 -177.228041 260 38051ft 466kts
19-Jun-17 15:54 20.809054 -177.365582 260 38050ft 466kts
19-Jun-17 15:55 20.799510 -177.503487 260 38049ft 466kts
19-Jun-17 15:56 20.789854 -177.641398 260 38048ft 466kts
19-Jun-17 15:57 20.780089 -177.779302 260 38053ft 466kts
19-Jun-17 15:58 20.770220 -177.917102 260 38052ft 466kts
19-Jun-17 15:59 20.760240 -178.054868 260 38051ft 466kts
19-Jun-17 16:00 20.750140 -178.192756 260 38050ft 466kts
19-Jun-17 16:01 20.739947 -178.330402 260 38049ft 466kts
19-Jun-17 16:02 20.729656 -178.467885 260 38048ft 466kts
19-Jun-17 16:03 20.719243 -178.605514 260 38047ft 466kts
19-Jun-17 16:05 20.708808 -178.742006 260 38052ft 465kts
19-Jun-17 16:06 20.698210 -178.879187 260 38051ft 465kts
19-Jun-17 16:07 20.687459 -179.016895 260 38050ft 465kts
19-Jun-17 16:08 20.676628 -179.154216 260 38049ft 465kts
19-Jun-17 16:09 20.665646 -179.292048 260 38048ft 465kts
19-Jun-17 16:10 20.654585 -179.429490 260 38048ft 465kts
19-Jun-17 16:11 20.643437 -179.566621 259 38052ft 465kts
19-Jun-17 16:12 20.632136 -179.704332 259 38051ft 465kts
19-Jun-17 16:13 20.620747 -179.841726 259 38050ft 465kts
19-Jun-17 16:14 20.609271 -179.978844 259 38049ft 465kts
19-Jun-17 16:15 20.597020 179.884225 259 38049ft 465kts
19-Jun-17 16:16 20.584535 179.747255 259 38048ft 465kts
19-Jun-17 16:17 20.571897 179.609827 259 38047ft 465kts
19-Jun-17 16:18 20.559223 179.473234 259 38046ft 464kts
19-Jun-17 16:19 20.546414 179.336319 259 38048ft 464kts
19-Jun-17 16:20 20.533487 179.199329 259 38050ft 464kts
19-Jun-17 16:21 20.520480 179.062652 259 38049ft 464kts
19-Jun-17 16:22 20.507382 178.926168 259 38048ft 464kts
19-Jun-17 16:23 20.494135 178.789272 259 38047ft 464kts
19-Jun-17 16:24 20.480779 178.652376 259 38046ft 464kts
19-Jun-17 16:25 20.467362 178.515985 259 38045ft 464kts
19-Jun-17 16:26 20.453821 178.379432 259 38044ft 464kts
19-Jun-17 16:27 20.440150 178.242681 258 38049ft 464kts
19-Jun-17 16:28 20.426387 178.106083 258 38048ft 464kts
19-Jun-17 16:29 20.412572 177.970046 258 38047ft 464kts
19-Jun-17 16:30 20.398592 177.833461 258 38046ft 464kts
19-Jun-17 16:31 20.384514 177.696976 258 38045ft 464kts
19-Jun-17 16:32 20.370292 177.560158 258 38044ft 464kts
19-Jun-17 16:33 20.356049 177.424180 258 38043ft 464kts
19-Jun-17 16:34 20.341618 177.287481 258 38048ft 464kts
19-Jun-17 16:35 20.327124 177.151153 258 38047ft 464kts
19-Jun-17 16:36 20.312565 177.015248 258 38046ft 464kts
19-Jun-17 16:37 20.297850 176.878906 258 38045ft 464kts
19-Jun-17 16:38 20.283021 176.742803 258 38043ft 462kts
19-Jun-17 16:39 20.268193 176.607116 258 38043ft 463kts
19-Jun-17 16:40 20.253174 176.470926 258 38015ft 463kts
19-Jun-17 16:41 20.238135 176.335552 258 38017ft 463kts
19-Jun-17 16:42 20.222918 176.199574 258 38019ft 462kts
19-Jun-17 16:43 20.207637 176.063946 258 38018ft 462kts
19-Jun-17 16:44 20.192244 175.928280 258 38017ft 462kts
19-Jun-17 16:45 20.176745 175.792620 258 38016ft 462kts
19-Jun-17 16:46 20.161129 175.656875 258 38015ft 462kts
19-Jun-17 16:47 20.145396 175.521044 258 38014ft 462kts
19-Jun-17 16:48 20.129583 175.385445 258 38013ft 462kts
19-Jun-17 16:49 20.113665 175.249912 257 38018ft 462kts
19-Jun-17 16:50 20.097700 175.114836 257 38017ft 462kts
19-Jun-17 16:51 20.081574 174.979297 257 38016ft 462kts
19-Jun-17 16:52 20.065322 174.843601 257 38015ft 462kts
19-Jun-17 16:53 20.049038 174.708521 257 38014ft 462kts
19-Jun-17 16:54 20.032626 174.573263 257 38013ft 462kts
19-Jun-17 16:55 20.016072 174.437709 258 38012ft 462kts
19-Jun-17 16:56 19.999430 174.302365 257 38017ft 462kts
19-Jun-17 16:57 19.982729 174.167350 257 38016ft 462kts
19-Jun-17 16:58 19.965903 174.032171 257 38015ft 462kts
19-Jun-17 16:59 19.948983 173.897091 257 38014ft 462kts
19-Jun-17 17:00 19.931956 173.762006 257 38013ft 462kts
19-Jun-17 17:01 19.914816 173.626860 257 38012ft 462kts
19-Jun-17 17:02 19.897568 173.491694 257 38020ft 462kts
19-Jun-17 17:03 19.880249 173.356854 257 38022ft 462kts
19-Jun-17 17:04 19.862268 173.221775 257 38027ft 462kts
19-Jun-17 17:05 19.843964 173.086901 257 38026ft 462kts
19-Jun-17 17:06 19.825615 172.952493 257 38025ft 462kts
19-Jun-17 17:07 19.807125 172.817816 257 38024ft 462kts
19-Jun-17 17:08 19.788542 172.683238 257 38023ft 462kts
19-Jun-17 17:09 19.769860 172.548698 257 38022ft 462kts
19-Jun-17 17:10 19.751037 172.413897 257 38021ft 462kts
19-Jun-17 17:11 19.732168 172.279527 256 38025ft 461kts
19-Jun-17 17:12 19.713205 172.145200 256 38024ft 461kts
19-Jun-17 17:13 19.694120 172.010776 256 38023ft 461kts
19-Jun-17 17:14 19.674926 171.876319 256 38022ft 461kts
19-Jun-17 17:15 19.655625 171.741846 256 38021ft 461kts
19-Jun-17 17:16 19.636262 171.607671 256 38020ft 461kts
19-Jun-17 17:17 19.616808 171.473583 256 38019ft 461kts
19-Jun-17 17:18 19.597394 171.340482 256 38020ft 461kts
19-Jun-17 17:19 19.577704 171.206193 256 38023ft 461kts
19-Jun-17 17:20 19.557973 171.072334 256 38001ft 461kts
19-Jun-17 17:21 19.538124 170.938378 256 37994ft 461kts
19-Jun-17 17:22 19.518120 170.804080 256 37993ft 461kts
19-Jun-17 17:23 19.498050 170.670036 256 37992ft 461kts
19-Jun-17 17:24 19.477886 170.536055 256 37991ft 461kts
19-Jun-17 17:25 19.457667 170.402394 256 37990ft 461kts
19-Jun-17 17:26 19.437285 170.268352 256 37995ft 461kts
19-Jun-17 17:27 19.416813 170.134378 256 37994ft 461kts
19-Jun-17 17:28 19.396294 170.000773 256 37993ft 461kts
19-Jun-17 17:29 19.375645 169.867000 256 37992ft 461kts
19-Jun-17 17:30 19.354872 169.733083 256 37991ft 461kts
19-Jun-17 17:31 19.333876 169.601110 258 37979ft 439kts
19-Jun-17 17:32 19.314599 169.475769 258 37988ft 434kts
19-Jun-17 17:33 19.294865 169.349967 258 37984ft 434kts
19-Jun-17 17:34 19.274984 169.224187 258 37996ft 434kts
19-Jun-17 17:35 19.255041 169.098634 258 37994ft 433kts
19-Jun-17 17:36 19.234977 168.973252 258 37977ft 427kts
19-Jun-17 17:37 19.214932 168.847682 258 37988ft 433kts
19-Jun-17 17:38 19.194726 168.722166 258 37988ft 433kts
19-Jun-17 17:39 19.174432 168.596647 258 37986ft 433kts
19-Jun-17 17:40 19.154053 168.471156 258 37984ft 433kts
19-Jun-17 17:41 19.133714 168.346463 258 37984ft 433kts
19-Jun-17 17:42 19.113234 168.221421 258 38005ft 435kts
19-Jun-17 17:43 19.092652 168.096407 258 37993ft 433kts
19-Jun-17 17:44 19.071939 167.971087 258 37991ft 433kts
19-Jun-17 17:45 19.051152 167.845812 258 37989ft 433kts
19-Jun-17 17:46 19.030332 167.720907 258 37987ft 433kts
19-Jun-17 17:47 19.009381 167.595756 258 37985ft 433kts
19-Jun-17 17:48 18.988330 167.470535 258 37983ft 433kts
19-Jun-17 17:49 18.967257 167.345721 258 37983ft 433kts
19-Jun-17 17:50 18.946112 167.221107 258 37999ft 434kts
19-Jun-17 17:51 18.924878 167.096337 258 37992ft 432kts
19-Jun-17 17:52 18.903581 166.971759 258 37990ft 432kts
19-Jun-17 17:53 18.882093 166.846633 258 37994ft 432kts
19-Jun-17 17:53 18.864205 166.742812 258 37993ft 432kts
19-Jun-17 17:54 18.842263 166.617319 258 39467ft 433kts
19-Jun-17 17:55 18.820351 166.493201 258 39989ft 431kts
19-Jun-17 17:56 18.798356 166.369066 258 39986ft 431kts
19-Jun-17 17:57 18.776422 166.245698 258 40012ft 432kts
19-Jun-17 17:58 18.754164 166.121204 258 39996ft 430kts
19-Jun-17 17:59 18.732002 165.997631 258 39995ft 431kts
19-Jun-17 18:00 18.709133 165.873272 261 39994ft 434kts
19-Jun-17 18:01 18.686988 165.748363 261 39990ft 433kts
19-Jun-17 18:02 18.664455 165.623994 261 39988ft 433kts
19-Jun-17 18:03 18.641816 165.499405 261 39989ft 433kts
19-Jun-17 18:04 18.618948 165.374655 261 39984ft 433kts
19-Jun-17 18:05 18.596130 165.250401 260 39997ft 433kts
19-Jun-17 18:06 18.573149 165.125699 260 39996ft 433kts
19-Jun-17 18:07 18.550140 165.001333 260 39994ft 433kts
19-Jun-17 18:08 18.526992 164.876696 260 39992ft 433kts
19-Jun-17 18:09 18.503823 164.752413 260 39990ft 433kts
19-Jun-17 18:10 18.480581 164.628126 260 39987ft 434kts
19-Jun-17 18:11 18.457245 164.503955 260 39987ft 433kts
19-Jun-17 18:12 18.433780 164.379505 260 39985ft 433kts
19-Jun-17 18:13 18.410349 164.255700 260 39998ft 433kts
19-Jun-17 18:14 18.386701 164.131183 260 39996ft 433kts
19-Jun-17 18:15 18.363042 164.007076 260 39994ft 433kts
19-Jun-17 18:16 18.339291 163.882865 260 39995ft 434kts
19-Jun-17 18:17 18.315405 163.758549 260 39991ft 433kts
19-Jun-17 18:18 18.291472 163.634382 260 39989ft 433kts
19-Jun-17 18:19 18.267548 163.510699 260 39987ft 433kts
19-Jun-17 18:20 18.243460 163.386614 260 39985ft 433kts
19-Jun-17 18:21 18.219243 163.262340 260 39998ft 433kts
19-Jun-17 18:22 18.195038 163.138539 260 39997ft 433kts
19-Jun-17 18:23 18.170732 163.014619 260 39994ft 434kts
19-Jun-17 18:24 18.146364 162.890913 260 39993ft 433kts
19-Jun-17 18:25 18.121909 162.767164 260 39991ft 433kts
19-Jun-17 18:26 18.097367 162.643402 260 39989ft 433kts
19-Jun-17 18:27 18.072681 162.519346 260 39987ft 433kts
19-Jun-17 18:28 18.048016 162.395830 260 39985ft 433kts
19-Jun-17 18:29 18.023133 162.271955 259 40003ft 431kts
19-Jun-17 18:31 17.998395 162.148609 260 39996ft 433kts
19-Jun-17 18:32 17.973376 162.024649 260 39995ft 433kts
19-Jun-17 18:33 17.948390 161.901234 260 39993ft 433kts
19-Jun-17 18:34 17.923301 161.777726 260 39991ft 433kts
19-Jun-17 18:35 17.898149 161.654327 260 39989ft 433kts
19-Jun-17 18:36 17.872817 161.530513 260 39986ft 433kts
19-Jun-17 18:37 17.847564 161.407215 260 39990ft 434kts
19-Jun-17 18:38 17.822401 161.285231 259 39997ft 434kts
19-Jun-17 18:39 17.796901 161.161776 259 39996ft 434kts
19-Jun-17 18:40 17.771338 161.038439 259 39994ft 434kts
19-Jun-17 18:41 17.745633 160.914834 259 39992ft 433kts
19-Jun-17 18:42 17.719892 160.791459 259 39990ft 433kts
19-Jun-17 18:43 17.694094 160.668214 259 39989ft 433kts
19-Jun-17 18:44 17.668303 160.545356 259 39986ft 434kts
19-Jun-17 18:45 17.642315 160.422050 259 39985ft 433kts
19-Jun-17 18:46 17.616296 160.298986 259 40000ft 434kts
19-Jun-17 18:47 17.590172 160.175754 259 39997ft 434kts
19-Jun-17 18:48 17.563965 160.052559 259 39995ft 433kts
19-Jun-17 18:49 17.537717 159.929567 259 39993ft 433kts
19-Jun-17 18:50 17.511365 159.806600 260 39995ft 432kts
19-Jun-17 18:51 17.485015 159.683719 259 39988ft 433kts
19-Jun-17 18:52 17.458543 159.560906 259 39987ft 433kts
19-Jun-17 18:53 17.431991 159.438052 259 39985ft 433kts
19-Jun-17 18:54 17.405387 159.315368 259 40002ft 434kts
19-Jun-17 18:55 17.378662 159.192456 259 39997ft 433kts
19-Jun-17 18:56 17.351884 159.069696 259 39995ft 433kts
19-Jun-17 18:57 17.325056 158.947090 259 39991ft 433kts
19-Jun-17 18:58 17.298145 158.824472 259 39991ft 433kts
19-Jun-17 18:59 17.271109 158.701681 259 39990ft 433kts
19-Jun-17 19:00 17.244031 158.579065 259 39988ft 433kts
19-Jun-17 19:01 17.216917 158.456653 259 39986ft 433kts
19-Jun-17 19:02 17.189705 158.334179 259 39995ft 433kts
19-Jun-17 19:03 17.162407 158.211690 259 39998ft 433kts
19-Jun-17 19:04 17.134862 158.089129 260 39975ft 439kts
19-Jun-17 19:05 17.106415 157.962032 263 40011ft 461kts
19-Jun-17 19:06 17.076550 157.828542 263 40014ft 485kts
19-Jun-17 19:07 17.045421 157.690844 263 39997ft 485kts
19-Jun-17 19:08 17.014332 157.553523 263 39999ft 486kts
19-Jun-17 19:09 16.983223 157.416592 263 39999ft 486kts
19-Jun-17 19:10 16.952040 157.279801 262 40003ft 486kts
19-Jun-17 19:11 16.920686 157.142650 262 39975ft 487kts
19-Jun-17 19:12 16.889258 157.005719 262 39960ft 486kts
19-Jun-17 19:13 16.857786 156.868978 262 39961ft 486kts
19-Jun-17 19:14 16.826155 156.731995 262 39961ft 486kts
19-Jun-17 19:15 16.794379 156.594821 262 39961ft 486kts
19-Jun-17 19:16 16.762612 156.458123 262 39961ft 486kts
19-Jun-17 19:17 16.730646 156.321008 262 39858ft 486kts
19-Jun-17 19:18 16.698783 156.184691 262 39849ft 484kts
19-Jun-17 19:19 16.666605 156.047579 262 39856ft 487kts
19-Jun-17 19:20 16.634437 155.910865 262 39911ft 487kts
19-Jun-17 19:21 16.602120 155.773985 262 39911ft 487kts
19-Jun-17 19:22 16.569761 155.637332 262 39910ft 487kts
19-Jun-17 19:23 16.537289 155.500624 262 39910ft 487kts
19-Jun-17 19:24 16.504750 155.364054 262 39910ft 487kts
19-Jun-17 19:25 16.472101 155.227489 262 39921ft 486kts
19-Jun-17 19:26 16.439467 155.091332 262 39913ft 486kts
19-Jun-17 19:27 16.406767 154.955306 262 39914ft 486kts
19-Jun-17 19:28 16.373916 154.819087 262 39914ft 486kts
19-Jun-17 19:29 16.340942 154.682769 262 39914ft 486kts
19-Jun-17 19:30 16.308006 154.547012 262 39914ft 486kts
19-Jun-17 19:31 16.274895 154.410937 262 39913ft 486kts
19-Jun-17 19:32 16.241592 154.274617 262 39929ft 484kts
19-Jun-17 19:33 16.208321 154.138530 262 39916ft 487kts
19-Jun-17 19:34 16.174912 154.002479 262 39918ft 487kts
19-Jun-17 19:35 16.141299 153.865961 262 39918ft 487kts
19-Jun-17 19:36 16.107705 153.729915 262 39917ft 487kts
19-Jun-17 19:37 16.074053 153.594026 262 39917ft 487kts
19-Jun-17 19:38 16.040204 153.457736 262 39917ft 487kts
19-Jun-17 19:39 16.006351 153.321826 262 39922ft 487kts
19-Jun-17 19:40 15.971926 153.186592 261 39934ft 490kts
19-Jun-17 19:41 15.936740 153.050477 261 39921ft 487kts
19-Jun-17 19:42 15.901554 152.914512 261 39921ft 488kts
19-Jun-17 19:43 15.866389 152.779014 261 39907ft 488kts
19-Jun-17 19:44 15.831032 152.643153 261 39906ft 488kts
19-Jun-17 19:45 15.795492 152.506958 261 39907ft 488kts
19-Jun-17 19:46 15.760007 152.371342 261 39906ft 489kts
19-Jun-17 19:47 15.724310 152.235278 261 39910ft 489kts
19-Jun-17 19:48 15.688708 152.099820 261 39922ft 492kts
19-Jun-17 19:49 15.652796 151.963820 261 39910ft 489kts
19-Jun-17 19:50 15.616888 151.828055 261 39910ft 489kts
19-Jun-17 19:51 15.580941 151.692509 261 39910ft 489kts
19-Jun-17 19:52 15.544765 151.556467 261 39910ft 489kts
19-Jun-17 19:53 15.508699 151.421192 261 39910ft 489kts
19-Jun-17 19:54 15.472945 151.285315 256 39896ft 506kts
19-Jun-17 19:55 15.434289 151.141556 253 39919ft 530kts
19-Jun-17 19:56 15.395737 150.998443 249 39919ft 489kts
19-Jun-17 19:57 15.360878 150.870723 251 39909ft 451kts
19-Jun-17 19:58 15.326887 150.744637 251 39909ft 455kts
19-Jun-17 19:59 15.292813 150.618777 251 39908ft 455kts
19-Jun-17 20:00 15.258537 150.492492 251 39907ft 455kts
19-Jun-17 20:01 15.224312 150.366663 251 39906ft 456kts
19-Jun-17 20:02 15.189891 150.240505 251 39912ft 456kts
19-Jun-17 20:03 15.155397 150.114312 251 39909ft 455kts
19-Jun-17 20:04 15.120956 149.988640 251 39910ft 456kts
19-Jun-17 20:05 15.086328 149.862562 251 39909ft 456kts
19-Jun-17 20:06 15.051683 149.736718 251 39907ft 456kts
19-Jun-17 20:07 15.016884 149.610605 251 39906ft 456kts
19-Jun-17 20:08 14.982033 149.484600 251 39928ft 456kts
19-Jun-17 20:09 14.947178 149.358857 251 39931ft 456kts
19-Jun-17 20:10 14.912250 149.233189 251 39937ft 456kts
19-Jun-17 20:11 14.877114 149.107021 251 39943ft 456kts
19-Jun-17 20:12 14.842008 148.981248 251 39943ft 456kts
19-Jun-17 20:13 14.806778 148.855329 251 39941ft 456kts
19-Jun-17 20:14 14.771516 148.729574 251 39940ft 457kts
19-Jun-17 20:15 14.736178 148.603792 251 39939ft 457kts
19-Jun-17 20:16 14.700749 148.478050 251 39938ft 457kts
19-Jun-17 20:17 14.665245 148.352285 251 39937ft 457kts
19-Jun-17 20:17 14.635673 148.247742 251 39943ft 457kts
19-Jun-17 20:19 14.594009 148.100777 251 39941ft 457kts
19-Jun-17 20:19 14.564263 147.996085 251 39940ft 457kts
19-Jun-17 20:20 14.528541 147.870616 251 39939ft 457kts
19-Jun-17 20:21 14.492565 147.744509 251 39938ft 458kts
19-Jun-17 20:22 14.456813 147.619501 251 39937ft 458kts
19-Jun-17 20:24 14.414613 147.472272 251 39936ft 458kts
19-Jun-17 20:24 14.384549 147.367610 251 39935ft 458kts
19-Jun-17 20:25 14.348717 147.243000 250 39380ft 456kts
19-Jun-17 20:26 14.313362 147.120296 249 37875ft 439kts
19-Jun-17 20:27 14.279102 147.001825 249 36481ft 423kts
19-Jun-17 20:28 14.246234 146.888331 249 35147ft 407kts
19-Jun-17 20:29 14.214151 146.777890 248 33872ft 406kts
19-Jun-17 20:30 14.181468 146.665620 249 32622ft 412kts
19-Jun-17 20:31 14.148313 146.551804 249 31342ft 418kts
19-Jun-17 20:32 14.114915 146.437350 250 30053ft 423kts
19-Jun-17 20:33 14.081157 146.321803 250 28752ft 427kts
19-Jun-17 20:34 14.046778 146.204438 250 27428ft 431kts
19-Jun-17 20:35 14.012064 146.086359 250 26080ft 426kts
19-Jun-17 20:36 13.978606 145.972313 250 24751ft 411kts
19-Jun-17 20:37 13.945874 145.861191 250 23457ft 397kts
19-Jun-17 20:38 13.914507 145.754900 250 22225ft 383kts
19-Jun-17 20:39 13.883983 145.651658 250 21017ft 371kts
19-Jun-17 20:40 13.854307 145.551461 250 19770ft 363kts
19-Jun-17 20:41 13.825016 145.452719 250 18471ft 357kts
19-Jun-17 20:42 13.796189 145.355679 250 17172ft 352kts
19-Jun-17 20:43 13.767745 145.260083 250 15876ft 349kts
19-Jun-17 20:44 13.750544 145.202340 250 15086ft 346kts
19-Jun-17 20:45 13.722669 145.108802 250 13677ft 322kts
19-Jun-17 20:46 13.698498 145.027920 250 12358ft 293kts
19-Jun-17 20:47 13.674196 144.946713 250 11054ft 295kts
19-Jun-17 20:48 13.650956 144.869066 250 9700ft 279kts
19-Jun-17 20:49 13.628323 144.793591 250 8400ft 275kts
19-Jun-17 20:50 13.605916 144.718940 250 7080ft 270kts
19-Jun-17 20:51 13.580433 144.647757 234 5386ft 262kts
19-Jun-17 20:52 13.527891 144.597291 206 3465ft 261kts
19-Jun-17 20:53 13.461300 144.578104 181 2134ft 233kts
19-Jun-17 20:55 13.412364 144.598458 101 2038ft 212kts
19-Jun-17 20:56 13.419266 144.652650 66 1999ft 187kts
19-Jun-17 20:57 13.440813 144.700706 66 1993ft 187kts
19-Jun-17 20:58 13.461333 144.745515 66 1058ft 152kts
19-Jun-17 20:59 13.476271 144.778256 66 362ft 145kts
19-Jun-17 21:00 13.485696 144.798907 68 288ft 51kts
19-Jun-17 21:01 13.491375 144.806989 59 304ft 22kts
19-Jun-17 21:02 13.492486 144.807151 334 296ft 0kts

Navigation Log

Ident Type
Flight plan parsing failed, navigation log unavailable